createdAt,value
2022-11-16T00:01:42.574Z,100360.31
2022-11-16T00:04:11.927Z,100343.91
2022-11-16T00:06:40.439Z,100245.50
2022-11-16T00:09:23.617Z,100359.34
2022-11-16T00:11:54.346Z,100342.69
2022-11-16T00:14:23.709Z,100333.28
2022-11-16T00:16:52.212Z,100342.88
2022-11-16T00:19:20.032Z,100330.53
2022-11-16T00:21:47.869Z,100353.38
2022-11-16T00:24:16.888Z,100336.69
2022-11-16T00:26:45.455Z,100334.81
2022-11-16T00:29:16.933Z,100337.59
2022-11-16T00:31:45.083Z,100331.47
2022-11-16T00:34:13.489Z,100332.25
2022-11-16T00:36:41.333Z,100340.09
2022-11-16T00:39:11.941Z,100328.75
2022-11-16T00:41:39.777Z,100335.75
2022-11-16T00:44:07.698Z,100335.59
2022-11-16T00:46:36.975Z,100338.06
2022-11-16T00:49:05.562Z,100315.41
2022-11-16T00:51:34.164Z,100328.53
2022-11-16T00:54:02.611Z,100318.28
2022-11-16T00:56:30.389Z,100319.88
2022-11-16T00:58:58.240Z,100310.41
2022-11-16T01:01:26.191Z,100303.25
2022-11-16T01:03:55.485Z,100302.41
2022-11-16T01:06:24.400Z,100290.53
2022-11-16T01:08:52.560Z,100311.16
2022-11-16T01:11:38.011Z,100302.41
2022-11-16T01:14:09.067Z,100311.50
2022-11-16T01:16:37.537Z,100293.75
2022-11-16T01:19:06.894Z,100296.66
2022-11-16T01:21:35.271Z,100299.03
2022-11-16T01:24:03.142Z,100292.91
2022-11-16T01:26:30.966Z,100278.13
2022-11-16T01:28:59.772Z,100274.56
2022-11-16T01:31:27.615Z,100279.00
2022-11-16T01:33:55.770Z,100271.00
2022-11-16T01:36:25.102Z,100277.06
2022-11-16T01:38:52.949Z,100277.91
2022-11-16T01:41:23.240Z,100269.91
2022-11-16T01:43:53.966Z,100253.16
2022-11-16T01:46:22.491Z,100264.16
2022-11-16T01:48:54.269Z,100258.88
2022-11-16T01:51:22.781Z,100262.28
2022-11-16T01:53:52.471Z,100263.25
2022-11-16T01:56:20.957Z,100254.63
2022-11-16T01:58:50.139Z,100272.78
2022-11-16T02:01:18.085Z,100270.25
2022-11-16T02:03:46.014Z,100262.44
2022-11-16T02:06:40.778Z,100245.94
2022-11-16T02:09:46.274Z,100221.06
2022-11-16T02:12:39.273Z,100227.44
2022-11-16T02:15:17.031Z,100216.72
2022-11-16T02:17:54.477Z,100227.44
2022-11-16T02:20:55.102Z,100225.06
2022-11-16T02:23:48.062Z,100222.22
2022-11-16T02:26:36.068Z,100228.44
2022-11-16T02:29:21.230Z,100229.50
2022-11-16T02:31:55.442Z,100220.63
2022-11-16T02:34:27.953Z,100178.19
2022-11-16T02:37:04.410Z,100214.78
2022-11-16T02:39:34.190Z,100207.72
2022-11-16T02:42:03.776Z,100205.75
2022-11-16T02:44:37.316Z,100213.50
2022-11-16T02:47:08.685Z,100192.09
2022-11-16T02:49:41.503Z,100192.59
2022-11-16T02:52:12.130Z,100195.56
2022-11-16T02:54:39.968Z,100206.78
2022-11-16T02:57:34.036Z,100196.34
2022-11-16T03:00:05.726Z,100203.91
2022-11-16T03:02:42.719Z,100192.88
2022-11-16T03:05:16.490Z,100196.38
2022-11-16T03:07:49.598Z,100198.91
2022-11-16T03:10:40.859Z,100204.81
2022-11-16T03:13:10.166Z,100158.81
2022-11-16T03:15:41.993Z,100197.72
2022-11-16T03:18:10.256Z,100192.69
2022-11-16T03:20:40.708Z,100205.53
2022-11-16T03:23:12.202Z,100192.69
2022-11-16T03:25:46.480Z,100175.19
2022-11-16T03:28:21.013Z,100166.47
2022-11-16T03:30:54.031Z,100193.44
2022-11-16T03:33:25.497Z,100183.63
2022-11-16T03:35:57.812Z,100200.25
2022-11-16T03:38:28.535Z,100192.50
2022-11-16T03:41:00.893Z,100192.38
2022-11-16T03:43:29.110Z,100173.75
2022-11-16T03:45:59.038Z,100174.19
2022-11-16T03:48:27.049Z,100152.56
2022-11-16T03:50:54.895Z,100187.22
2022-11-16T03:53:22.702Z,100173.56
2022-11-16T03:55:50.526Z,100187.66
2022-11-16T03:58:19.039Z,100114.91
2022-11-16T04:00:46.929Z,100174.41
2022-11-16T04:03:16.176Z,100175.81
2022-11-16T04:06:01.643Z,100174.16
2022-11-16T04:08:47.147Z,100186.38
2022-11-16T04:11:33.302Z,100179.38
2022-11-16T04:14:19.082Z,100186.16
2022-11-16T04:17:04.484Z,100176.97
2022-11-16T04:19:54.039Z,100178.06
2022-11-16T04:22:46.643Z,100176.56
2022-11-16T04:25:20.002Z,100175.53
2022-11-16T04:28:05.862Z,100177.16
2022-11-16T04:30:56.397Z,100190.34
2022-11-16T04:33:41.677Z,100173.84
2022-11-16T04:36:28.238Z,100176.84
2022-11-16T04:38:56.011Z,100180.56
2022-11-16T04:41:40.893Z,100146.53
2022-11-16T04:44:08.682Z,100101.06
2022-11-16T04:46:53.905Z,100189.38
2022-11-16T04:49:21.701Z,100190.72
2022-11-16T04:51:50.866Z,100186.66
2022-11-16T04:54:18.655Z,100196.28
2022-11-16T04:56:46.528Z,100189.09
2022-11-16T04:59:14.583Z,100187.59
2022-11-16T05:01:59.875Z,100180.47
2022-11-16T05:04:27.717Z,100189.44
2022-11-16T05:06:56.893Z,100182.38
2022-11-16T05:09:24.734Z,100208.22
2022-11-16T05:11:52.967Z,100196.41
2022-11-16T05:14:20.753Z,100178.34
2022-11-16T05:16:48.535Z,100176.13
2022-11-16T05:19:34.088Z,100186.53
2022-11-16T05:22:03.240Z,100199.69
2022-11-16T05:24:36.825Z,100179.66
2022-11-16T05:27:05.907Z,100179.91
2022-11-16T05:29:34.118Z,100184.91
2022-11-16T05:32:02.245Z,100167.78
2022-11-16T05:34:30.166Z,100193.97
2022-11-16T05:36:58.518Z,100157.44
2022-11-16T05:39:28.246Z,100191.31
2022-11-16T05:41:56.887Z,100178.00
2022-11-16T05:44:25.327Z,100190.47
2022-11-16T05:46:53.455Z,100179.91
2022-11-16T05:49:21.276Z,100181.75
2022-11-16T05:51:49.280Z,100182.47
2022-11-16T05:54:18.968Z,100163.28
2022-11-16T05:56:49.751Z,100193.81
2022-11-16T05:59:19.315Z,100167.16
2022-11-16T06:01:47.837Z,100185.38
2022-11-16T06:04:15.864Z,100177.41
2022-11-16T06:06:43.744Z,100174.22
2022-11-16T06:09:12.461Z,100176.69
2022-11-16T06:11:40.412Z,100186.50
2022-11-16T06:14:19.611Z,100179.97
2022-11-16T06:16:47.437Z,100194.75
2022-11-16T06:19:15.261Z,100185.41
2022-11-16T06:21:43.069Z,100183.50
2022-11-16T06:24:10.949Z,100200.34
2022-11-16T06:26:38.810Z,100180.31
2022-11-16T06:29:06.678Z,100181.03
2022-11-16T06:31:36.025Z,100182.16
2022-11-16T06:34:13.610Z,100190.53
2022-11-16T06:36:41.480Z,100200.03
2022-11-16T06:39:11.348Z,100183.72
2022-11-16T06:41:41.467Z,100176.81
2022-11-16T06:44:09.785Z,100171.41
2022-11-16T06:46:38.982Z,100190.47
2022-11-16T06:49:06.797Z,100213.84
2022-11-16T06:51:34.604Z,100169.66
2022-11-16T06:54:02.368Z,100174.94
2022-11-16T06:56:30.359Z,100188.06
2022-11-16T06:58:58.220Z,100188.53
2022-11-16T07:01:26.113Z,100205.47
2022-11-16T07:03:55.336Z,100208.13
2022-11-16T07:06:23.091Z,100193.25
2022-11-16T07:08:50.961Z,100182.78
2022-11-16T07:11:20.221Z,100189.84
2022-11-16T07:13:48.846Z,100199.16
2022-11-16T07:16:16.645Z,100171.44
2022-11-16T07:18:44.473Z,100186.38
2022-11-16T07:21:15.024Z,100176.56
2022-11-16T07:23:43.511Z,100171.28
2022-11-16T07:26:12.481Z,100129.50
2022-11-16T07:28:46.561Z,100177.53
2022-11-16T07:31:17.160Z,100173.06
2022-11-16T07:33:45.113Z,100181.56
2022-11-16T07:36:15.889Z,100178.16
2022-11-16T07:38:43.971Z,100178.81
2022-11-16T07:41:13.811Z,100193.81
2022-11-16T07:43:41.769Z,100204.13
2022-11-16T07:49:00.537Z,100175.97
2022-11-16T07:51:29.702Z,100186.38
2022-11-16T07:53:57.585Z,100191.69
2022-11-16T07:56:25.836Z,100193.38
2022-11-16T07:58:53.632Z,100193.31
2022-11-16T08:01:21.938Z,100177.16
2022-11-16T08:03:53.730Z,100197.50
2022-11-16T08:06:25.954Z,100208.16
2022-11-16T08:08:58.569Z,100221.94
2022-11-16T08:11:27.006Z,100203.38
2022-11-16T08:13:54.888Z,100184.25
2022-11-16T08:16:24.181Z,100192.91
2022-11-16T08:18:51.995Z,100186.19
2022-11-16T08:21:20.296Z,100151.81
2022-11-16T08:23:48.178Z,100159.88
2022-11-16T08:26:19.607Z,100198.94
2022-11-16T08:28:50.920Z,100197.81
2022-11-16T08:31:21.009Z,100182.00
2022-11-16T08:33:49.070Z,100190.56
2022-11-16T08:36:18.154Z,100185.25
2022-11-16T08:38:46.610Z,100202.88
2022-11-16T08:41:14.784Z,100178.16
2022-11-16T08:43:44.657Z,100172.13
2022-11-16T08:46:12.512Z,100190.97
2022-11-16T08:48:41.163Z,100183.44
2022-11-16T08:51:19.213Z,100204.41
2022-11-16T08:53:49.078Z,100193.78
2022-11-16T08:56:18.664Z,100187.63
2022-11-16T08:58:50.410Z,100184.97
2022-11-16T09:01:23.514Z,100187.91
2022-11-16T09:03:51.651Z,100174.00
2022-11-16T09:06:19.667Z,100171.16
2022-11-16T09:08:48.117Z,100142.72
2022-11-16T09:11:17.877Z,100185.59
2022-11-16T09:13:49.083Z,100174.59
2022-11-16T09:16:17.763Z,100168.78
2022-11-16T09:18:47.107Z,100184.31
2022-11-16T09:21:19.211Z,100191.97
2022-11-16T09:23:47.685Z,100154.84
2022-11-16T09:26:15.487Z,100176.88
2022-11-16T09:28:43.653Z,100190.97
2022-11-16T09:31:12.905Z,100190.00
2022-11-16T09:33:40.770Z,100188.03
2022-11-16T09:36:10.276Z,100197.59
2022-11-16T09:39:13.970Z,100188.97
2022-11-16T09:41:53.950Z,100188.00
2022-11-16T09:44:45.802Z,100195.63
2022-11-16T09:47:21.718Z,100194.75
2022-11-16T09:49:58.157Z,100206.28
2022-11-16T09:52:33.320Z,100199.69
2022-11-16T09:55:10.834Z,100199.94
2022-11-16T09:57:42.807Z,100199.78
2022-11-16T10:00:16.697Z,100210.94
2022-11-16T10:02:49.483Z,100207.91
2022-11-16T10:05:22.985Z,100200.03
2022-11-16T10:07:55.914Z,100223.44
2022-11-16T10:10:33.214Z,100207.91
2022-11-16T10:13:10.433Z,100226.06
2022-11-16T10:15:50.951Z,100212.44
2022-11-16T10:18:31.383Z,100200.94
2022-11-16T10:21:15.289Z,100223.13
2022-11-16T10:24:01.477Z,100205.06
2022-11-16T10:26:39.154Z,100224.97
2022-11-16T10:29:18.320Z,100229.97
2022-11-16T10:32:02.573Z,100221.94
2022-11-16T10:34:44.311Z,100232.47
2022-11-16T10:37:14.426Z,100224.69
2022-11-16T10:39:42.962Z,100237.53
2022-11-16T10:42:14.482Z,100214.03
2022-11-16T10:44:45.633Z,100217.88
2022-11-16T10:47:19.873Z,100223.84
2022-11-16T10:49:56.868Z,100219.06
2022-11-16T10:52:25.222Z,100231.13
2022-11-16T10:54:53.650Z,100189.97
2022-11-16T10:57:23.771Z,100225.59
2022-11-16T10:59:55.399Z,100221.97
2022-11-16T11:02:37.293Z,100207.81
2022-11-16T11:05:15.296Z,100232.91
2022-11-16T11:07:52.981Z,100224.44
2022-11-16T11:10:29.463Z,100248.69
2022-11-16T11:13:07.638Z,100225.63
2022-11-16T11:15:35.459Z,100263.06
2022-11-16T11:18:29.699Z,100245.00
2022-11-16T11:21:15.139Z,100258.09
2022-11-16T11:23:47.653Z,100226.75
2022-11-16T11:26:36.467Z,100235.97
2022-11-16T11:29:16.884Z,100231.47
2022-11-16T11:31:47.292Z,100222.91
2022-11-16T11:34:19.998Z,100236.84
2022-11-16T11:36:51.833Z,100193.63
2022-11-16T11:39:34.122Z,100215.91
2022-11-16T11:42:07.902Z,100218.06
2022-11-16T11:44:49.229Z,100215.28
2022-11-16T11:47:56.116Z,100211.13
2022-11-16T11:50:21.240Z,100207.88
2022-11-16T11:53:01.511Z,100206.56
2022-11-16T11:55:29.846Z,100216.94
2022-11-16T11:57:59.892Z,100208.78
2022-11-16T12:00:27.921Z,100216.13
2022-11-16T12:03:32.646Z,100225.31
2022-11-16T12:06:09.667Z,100220.84
2022-11-16T12:08:59.335Z,100205.22
2022-11-16T12:11:35.141Z,100226.97
2022-11-16T12:14:17.642Z,100208.16
2022-11-16T12:16:53.252Z,100238.50
2022-11-16T12:19:59.482Z,100234.66
2022-11-16T12:23:03.893Z,100241.72
2022-11-16T12:25:41.639Z,100247.50
2022-11-16T12:28:34.000Z,100254.47
2022-11-16T12:31:27.293Z,100253.41
2022-11-16T12:34:02.230Z,100266.34
2022-11-16T12:36:38.861Z,100250.03
2022-11-16T12:39:20.818Z,100266.50
2022-11-16T12:42:09.372Z,100278.00
2022-11-16T12:44:51.040Z,100270.88
2022-11-16T12:47:30.509Z,100267.28
2022-11-16T12:50:19.260Z,100267.34
2022-11-16T12:53:06.536Z,100275.16
2022-11-16T12:55:39.989Z,100261.25
2022-11-16T12:58:19.435Z,100240.09
2022-11-16T13:00:59.547Z,100270.94
2022-11-16T13:03:34.939Z,100278.28
2022-11-16T13:06:07.064Z,100271.38
2022-11-16T13:08:47.051Z,100275.75
2022-11-16T13:11:19.894Z,100263.81
2022-11-16T13:13:53.866Z,100275.97
2022-11-16T13:16:23.086Z,100274.28
2022-11-16T13:18:52.286Z,100275.28
2022-11-16T13:21:32.657Z,100290.16
2022-11-16T13:24:13.535Z,100280.63
2022-11-16T13:26:46.152Z,100279.78
2022-11-16T13:29:27.246Z,100288.38
2022-11-16T13:32:02.173Z,100280.66
2022-11-16T13:34:33.516Z,100284.97
2022-11-16T13:37:01.384Z,100286.09
2022-11-16T13:40:02.422Z,100266.06
2022-11-16T13:42:31.759Z,100287.78
2022-11-16T13:45:09.737Z,100296.50
2022-11-16T13:47:38.592Z,100285.25
2022-11-16T13:50:17.894Z,100293.97
2022-11-16T13:53:51.319Z,100287.81
2022-11-16T13:55:41.699Z,100259.66
2022-11-16T13:58:13.926Z,100281.03
2022-11-16T14:00:43.402Z,100290.50
2022-11-16T14:03:32.464Z,100285.31
2022-11-16T14:06:00.583Z,100272.44
2022-11-16T14:08:51.680Z,100270.63
2022-11-16T14:11:31.467Z,100283.53
2022-11-16T14:14:01.234Z,100284.44
2022-11-16T14:16:47.497Z,100282.81
2022-11-16T14:19:55.150Z,100281.75
2022-11-16T14:22:41.993Z,100277.47
2022-11-16T14:25:20.863Z,100279.16
2022-11-16T14:27:55.361Z,100280.13
2022-11-16T14:30:25.851Z,100280.28
2022-11-16T14:32:57.134Z,100256.53
2022-11-16T14:35:31.107Z,100292.25
2022-11-16T14:38:00.411Z,100279.16
2022-11-16T14:40:28.977Z,100290.50
2022-11-16T14:43:15.990Z,100289.63
2022-11-16T14:45:49.279Z,100293.13
2022-11-16T14:48:20.267Z,100284.53
2022-11-16T14:51:05.292Z,100287.25
2022-11-16T14:53:36.576Z,100281.16
2022-11-16T14:56:10.631Z,100279.25
2022-11-16T14:58:38.971Z,100279.50
2022-11-16T15:01:13.362Z,100233.41
2022-11-16T15:03:49.430Z,100272.63
2022-11-16T15:06:17.809Z,100285.75
2022-11-16T15:08:50.256Z,100270.91
2022-11-16T15:11:25.364Z,100271.81
2022-11-16T15:13:55.777Z,100270.28
2022-11-16T15:16:25.396Z,100265.88
2022-11-16T15:19:04.676Z,100259.88
2022-11-16T15:21:34.015Z,100258.97
2022-11-16T15:24:32.599Z,100225.78
2022-11-16T15:26:58.911Z,100268.63
2022-11-16T15:29:28.627Z,100265.19
2022-11-16T15:31:58.024Z,100268.78
2022-11-16T15:34:33.581Z,100257.41
2022-11-16T15:37:04.534Z,100269.59
2022-11-16T15:39:38.448Z,100270.38
2022-11-16T15:42:16.064Z,100260.78
2022-11-16T15:44:47.773Z,100265.91
2022-11-16T15:47:18.430Z,100267.78
2022-11-16T15:49:53.464Z,100262.72
2022-11-16T15:52:44.491Z,100269.47
2022-11-16T15:55:25.609Z,100256.72
2022-11-16T15:58:07.525Z,100268.75
2022-11-16T16:00:39.704Z,100255.78
2022-11-16T16:03:26.399Z,100269.59
2022-11-16T16:05:58.467Z,100236.22
2022-11-16T16:08:30.956Z,100267.84
2022-11-16T16:11:17.995Z,100264.47
2022-11-16T16:13:59.823Z,100242.97
2022-11-16T16:16:32.333Z,100148.00
2022-11-16T16:19:09.471Z,100260.16
2022-11-16T16:21:49.444Z,100212.97
2022-11-16T16:24:41.879Z,100249.69
2022-11-16T16:27:17.372Z,100250.50
2022-11-16T16:29:47.366Z,100235.06
2022-11-16T16:32:25.015Z,100243.53
2022-11-16T16:34:54.588Z,100193.19
2022-11-16T16:37:27.176Z,100229.81
2022-11-16T16:39:57.050Z,100242.78
2022-11-16T16:42:27.166Z,100233.06
2022-11-16T16:44:56.751Z,100227.06
2022-11-16T16:47:25.892Z,100246.81
2022-11-16T16:49:54.605Z,100238.22
2022-11-16T16:52:25.319Z,100230.47
2022-11-16T16:54:54.401Z,100235.00
2022-11-16T16:57:23.618Z,100238.44
2022-11-16T16:59:52.627Z,100241.72
2022-11-16T17:02:21.378Z,100232.19
2022-11-16T17:04:50.123Z,100227.00
2022-11-16T17:07:18.638Z,100232.13
2022-11-16T17:09:48.290Z,100237.19
2022-11-16T17:12:16.427Z,100223.38
2022-11-16T17:14:51.389Z,100229.19
2022-11-16T17:17:21.107Z,100227.38
2022-11-16T17:19:50.714Z,100229.00
2022-11-16T17:22:20.042Z,100241.16
2022-11-16T17:24:50.722Z,100220.41
2022-11-16T17:27:20.037Z,100234.09
2022-11-16T17:29:49.225Z,100215.09
2022-11-16T17:32:18.436Z,100227.94
2022-11-16T17:34:47.824Z,100241.88
2022-11-16T17:37:17.472Z,100197.97
2022-11-16T17:39:46.809Z,100205.50
2022-11-16T17:42:17.483Z,100233.91
2022-11-16T17:44:45.310Z,100232.91
2022-11-16T17:47:13.176Z,100244.44
2022-11-16T17:49:41.033Z,100196.09
2022-11-16T17:52:10.459Z,100192.03
2022-11-16T17:54:38.374Z,100261.47
2022-11-16T17:57:06.178Z,100232.91
2022-11-16T17:59:35.415Z,100259.69
2022-11-16T18:02:03.498Z,100222.94
2022-11-16T18:04:31.287Z,100234.66
2022-11-16T18:07:00.661Z,100236.44
2022-11-16T18:09:28.519Z,100256.50
2022-11-16T18:11:56.385Z,100225.44
2022-11-16T18:14:24.219Z,100243.28
2022-11-16T18:16:53.433Z,100249.31
2022-11-16T18:19:21.758Z,100213.44
2022-11-16T18:21:49.883Z,100235.56
2022-11-16T18:24:17.750Z,100239.97
2022-11-16T18:26:45.585Z,100238.84
2022-11-16T18:29:15.958Z,100238.78
2022-11-16T18:31:44.079Z,100225.97
2022-11-16T18:34:15.369Z,100221.75
2022-11-16T18:36:43.168Z,100230.13
2022-11-16T18:39:11.083Z,100179.13
2022-11-16T18:41:48.602Z,100239.16
2022-11-16T18:44:19.486Z,100210.75
2022-11-16T18:46:47.300Z,100238.16
2022-11-16T18:49:16.589Z,100210.59
2022-11-16T18:51:44.458Z,100232.91
2022-11-16T18:54:12.261Z,100226.03
2022-11-16T18:56:40.089Z,100235.72
2022-11-16T18:59:07.871Z,100244.16
2022-11-16T19:01:35.722Z,100087.06
2022-11-16T19:04:03.696Z,100246.91
2022-11-16T19:06:33.638Z,100230.66
2022-11-16T19:09:03.879Z,100228.25
2022-11-16T19:11:31.661Z,100248.50
2022-11-16T19:14:03.783Z,100261.69
2022-11-16T19:16:32.193Z,100237.84
2022-11-16T19:19:01.287Z,100258.19
2022-11-16T19:21:29.299Z,100250.66
2022-11-16T19:23:59.127Z,100273.03
2022-11-16T19:26:28.455Z,100293.66
2022-11-16T19:28:56.295Z,100267.13
2022-11-16T19:31:25.691Z,100260.91
2022-11-16T19:33:57.956Z,100247.91
2022-11-16T19:36:27.404Z,100254.97
2022-11-16T19:38:55.329Z,100263.47
2022-11-16T19:41:25.689Z,100212.31
2022-11-16T19:43:57.275Z,100238.03
2022-11-16T19:46:25.948Z,100254.06
2022-11-16T19:48:54.309Z,100266.25
2022-11-16T19:51:24.048Z,100237.88
2022-11-16T19:53:52.262Z,100226.06
2022-11-16T19:56:21.651Z,100264.50
2022-11-16T19:58:51.576Z,100227.22
2022-11-16T20:01:21.049Z,100246.59
2022-11-16T20:03:50.518Z,100253.50
2022-11-16T20:06:20.549Z,100255.34
2022-11-16T20:08:50.437Z,100234.53
2022-11-16T20:11:20.596Z,100253.38
2022-11-16T20:13:50.776Z,100258.50
2022-11-16T20:16:20.467Z,100244.16
2022-11-16T20:18:48.457Z,100271.97
2022-11-16T20:21:20.468Z,100259.53
2022-11-16T20:23:48.372Z,100265.59
2022-11-16T20:26:16.609Z,100252.69
2022-11-16T20:28:44.793Z,100244.81
2022-11-16T20:31:16.709Z,100192.09
2022-11-16T20:33:51.181Z,100239.97
2022-11-16T20:36:19.402Z,100245.84
2022-11-16T20:38:47.402Z,100203.72
2022-11-16T20:41:16.785Z,100195.09
2022-11-16T20:43:45.784Z,100231.22
2022-11-16T20:46:16.918Z,100240.81
2022-11-16T20:48:45.490Z,100215.03
2022-11-16T20:51:14.704Z,100223.44
2022-11-16T20:53:42.582Z,100195.38
2022-11-16T20:56:11.994Z,100184.91
2022-11-16T20:58:40.181Z,100208.78
2022-11-16T21:01:09.868Z,100205.59
2022-11-16T21:03:39.399Z,100214.25
2022-11-16T21:06:08.769Z,100201.88
2022-11-16T21:08:37.544Z,100209.19
2022-11-16T21:11:11.855Z,100223.78
2022-11-16T21:13:57.217Z,100209.81
2022-11-16T21:16:25.155Z,100196.63
2022-11-16T21:18:54.719Z,100218.50
2022-11-16T21:21:22.787Z,100210.84
2022-11-16T21:23:52.448Z,100204.78
2022-11-16T21:26:21.759Z,100195.16
2022-11-16T21:28:49.608Z,100203.94
2022-11-16T21:31:19.269Z,100200.50
2022-11-16T21:33:47.804Z,100198.63
2022-11-16T21:36:18.675Z,100204.75
2022-11-16T21:38:46.916Z,100203.88
2022-11-16T21:41:16.473Z,100194.53
2022-11-16T21:43:44.347Z,100211.00
2022-11-16T21:46:13.780Z,100199.72
2022-11-16T21:48:42.001Z,100180.09
2022-11-16T21:51:11.087Z,100179.84
2022-11-16T21:53:41.124Z,100184.91
2022-11-16T21:56:13.200Z,100205.78
2022-11-16T21:58:41.864Z,100185.25
2022-11-16T22:01:11.058Z,100204.09
2022-11-16T22:03:39.508Z,100195.47
2022-11-16T22:06:26.175Z,100199.91
2022-11-16T22:08:55.360Z,100187.66
2022-11-16T22:11:23.209Z,100202.19
2022-11-16T22:13:51.356Z,100100.47
2022-11-16T22:16:20.956Z,100181.72
2022-11-16T22:18:48.748Z,100200.06
2022-11-16T22:21:16.646Z,100213.84
2022-11-16T22:23:44.413Z,100159.84
2022-11-16T22:26:14.751Z,100183.47
2022-11-16T22:28:42.734Z,100189.66
2022-11-16T22:31:12.748Z,100178.56
2022-11-16T22:33:41.133Z,100176.66
2022-11-16T22:36:10.861Z,100168.88
2022-11-16T22:38:38.757Z,100200.25
2022-11-16T22:41:06.927Z,100174.31
2022-11-16T22:43:37.435Z,100170.69
2022-11-16T22:46:06.763Z,100163.88
2022-11-16T22:48:36.929Z,100183.06
2022-11-16T22:51:07.149Z,100171.94
2022-11-16T22:53:35.582Z,100068.56
2022-11-16T22:56:08.109Z,100167.50
2022-11-16T22:58:37.598Z,100175.38
2022-11-16T23:01:07.342Z,100166.63
2022-11-16T23:03:35.928Z,100178.91
2022-11-16T23:06:04.852Z,100168.50
2022-11-16T23:08:33.446Z,100182.50
2022-11-16T23:11:19.778Z,100169.50
2022-11-16T23:14:06.947Z,100170.53
2022-11-16T23:16:35.330Z,100125.16
2022-11-16T23:19:03.646Z,100146.47
2022-11-16T23:21:48.742Z,100169.75
2022-11-16T23:24:34.039Z,100165.38
2022-11-16T23:27:21.945Z,100159.19
2022-11-16T23:29:51.193Z,100182.59
2022-11-16T23:32:18.991Z,100153.44
2022-11-16T23:34:46.798Z,100157.78
2022-11-16T23:37:14.651Z,100124.41
2022-11-16T23:39:42.487Z,100164.06
2022-11-16T23:42:28.664Z,100160.41
2022-11-16T23:44:57.998Z,100144.81
2022-11-16T23:47:25.844Z,100141.44
2022-11-16T23:49:53.625Z,100142.22
2022-11-16T23:52:21.470Z,100154.34
2022-11-16T23:54:49.253Z,100139.69
2022-11-16T23:57:17.050Z,100134.47
2022-11-16T23:59:44.821Z,100148.28
